Hobart, Wisconsin
Current Conditions -  °F | °C
As of 3:53 PM on Saturday 25 Oct 2014 (Local Time) from KGRB Reporting Station
Clear Clear  
Wind Chill: 65°   Ceiling: Unl
Heat Index: 65°   Visibility: 10mi
Dew Point: 29°   Wind: 15mph
Humidity: 26%   Direction: 280°W
Pressure: 29.82"   Gusts: NA
Location:  44.5933°N, 88.1103°W
Report Text: KGRB 252053Z 28013KT 10SM CLR 18/M02 A2982 RMK AO2 PK WND 28027/1955 SLP097 T01831017 55001
Loading
Personal Weather Stations






























Interactive Weather Map
Tropical Storm Tracking
New forecast layout! Learn more

10-Day Weather Forecast

Advertisements
Track Severe Weather on mobile